createdAt,value
2023-04-10T00:00:41.556Z,11.55
2023-04-10T00:02:44.935Z,11.50
2023-04-10T00:04:49.722Z,10.77
2023-04-10T00:06:52.580Z,10.50
2023-04-10T00:08:55.347Z,11.48
2023-04-10T00:10:58.114Z,11.00
2023-04-10T00:13:03.525Z,10.45
2023-04-10T00:15:07.166Z,11.55
2023-04-10T00:17:10.076Z,11.07
2023-04-10T00:19:12.887Z,11.35
2023-04-10T00:21:17.408Z,12.13
2023-04-10T00:23:20.235Z,10.15
2023-04-10T00:25:24.074Z,10.75
2023-04-10T00:27:26.902Z,11.32
2023-04-10T00:29:29.706Z,11.45
2023-04-10T00:31:32.621Z,12.52
2023-04-10T00:33:35.549Z,10.98
2023-04-10T00:35:38.329Z,13.18
2023-04-10T00:37:42.525Z,11.40
2023-04-10T00:39:45.442Z,10.65
2023-04-10T00:41:48.223Z,11.15
2023-04-10T00:43:51.244Z,9.73
2023-04-10T00:45:54.248Z,10.07
2023-04-10T00:47:57.451Z,9.85
2023-04-10T00:50:01.298Z,10.32
2023-04-10T00:52:04.224Z,10.93
2023-04-10T00:54:10.332Z,11.20
2023-04-10T00:56:13.315Z,9.65
2023-04-10T00:58:17.460Z,11.20
2023-04-10T01:00:20.234Z,9.80
2023-04-10T01:02:24.225Z,12.15
2023-04-10T01:04:28.804Z,12.00
2023-04-10T01:06:49.313Z,11.18
2023-04-10T01:09:01.586Z,11.30
2023-04-10T01:11:11.451Z,11.00
2023-04-10T01:13:22.050Z,10.80
2023-04-10T01:15:27.917Z,10.48
2023-04-10T01:17:36.814Z,9.88
2023-04-10T01:20:03.138Z,10.65
2023-04-10T01:22:10.505Z,11.35
2023-04-10T01:24:25.411Z,11.88
2023-04-10T01:26:43.221Z,12.38
2023-04-10T01:29:01.508Z,11.57
2023-04-10T01:31:09.394Z,11.88
2023-04-10T01:33:15.037Z,15.85
2023-04-10T01:35:18.954Z,18.00
2023-04-10T01:37:25.652Z,16.60
2023-04-10T01:39:30.354Z,12.63
2023-04-10T01:41:37.238Z,11.52
2023-04-10T01:43:43.836Z,11.45
2023-04-10T01:45:52.696Z,10.80
2023-04-10T01:47:56.769Z,9.20
2023-04-10T01:50:00.474Z,10.43
2023-04-10T01:52:03.534Z,11.55
2023-04-10T01:54:07.244Z,13.32
2023-04-10T01:56:11.472Z,14.00
2023-04-10T01:58:20.870Z,29.92
2023-04-10T02:00:23.765Z,24.42
2023-04-10T02:02:32.065Z,15.45
2023-04-10T02:04:35.467Z,12.90
2023-04-10T02:06:46.037Z,11.60
2023-04-10T02:08:54.076Z,11.95
2023-04-10T02:11:03.540Z,11.10
2023-04-10T02:13:08.279Z,11.23
2023-04-10T02:15:12.971Z,9.57
2023-04-10T02:17:19.580Z,9.50
2023-04-10T02:19:28.887Z,10.57
2023-04-10T02:21:31.783Z,10.50
2023-04-10T02:23:34.922Z,14.82
2023-04-10T02:25:37.770Z,24.35
2023-04-10T02:27:40.894Z,13.30
2023-04-10T02:29:43.665Z,11.68
2023-04-10T02:31:47.389Z,11.63
2023-04-10T02:33:50.421Z,12.40
2023-04-10T02:35:54.581Z,9.60
2023-04-10T02:37:58.400Z,9.00
2023-04-10T02:40:01.301Z,10.52
2023-04-10T02:42:09.886Z,10.38
2023-04-10T02:44:14.307Z,10.93
2023-04-10T02:46:17.206Z,9.23
2023-04-10T02:48:20.102Z,11.88
2023-04-10T02:50:29.697Z,10.43
2023-04-10T02:52:33.972Z,10.55
2023-04-10T02:54:37.461Z,10.48
2023-04-10T02:56:40.427Z,11.57
2023-04-10T02:58:46.142Z,13.05
2023-04-10T03:00:50.802Z,11.00
2023-04-10T03:03:00.650Z,10.55
2023-04-10T03:05:11.417Z,10.68
2023-04-10T03:07:14.286Z,11.00
2023-04-10T03:09:18.661Z,18.33
2023-04-10T03:11:21.586Z,12.70
2023-04-10T03:13:24.429Z,10.98
2023-04-10T03:15:27.197Z,10.15
2023-04-10T03:17:30.010Z,9.48
2023-04-10T03:19:32.847Z,10.60
2023-04-10T03:21:35.643Z,10.40
2023-04-10T03:23:42.868Z,11.10
2023-04-10T03:25:51.231Z,11.48
2023-04-10T03:27:54.456Z,11.18
2023-04-10T03:29:58.526Z,11.38
2023-04-10T03:32:01.571Z,9.85
2023-04-10T03:34:05.707Z,9.30
2023-04-10T03:36:09.804Z,9.60
2023-04-10T03:38:12.645Z,13.30
2023-04-10T03:40:15.567Z,10.60
2023-04-10T03:42:20.022Z,11.13
2023-04-10T03:44:23.098Z,9.10
2023-04-10T03:46:27.108Z,9.23
2023-04-10T03:48:30.734Z,11.13
2023-04-10T03:50:33.751Z,10.55
2023-04-10T03:52:36.580Z,8.60
2023-04-10T03:54:39.995Z,10.02
2023-04-10T03:56:44.023Z,12.40
2023-04-10T03:58:48.852Z,11.93
2023-04-10T04:00:51.785Z,10.65
2023-04-10T04:03:05.178Z,8.30
2023-04-10T04:05:46.603Z,9.82
2023-04-10T04:08:00.598Z,9.32
2023-04-10T04:10:12.212Z,8.82
2023-04-10T04:12:24.747Z,12.15
2023-04-10T04:14:46.748Z,8.73
2023-04-10T04:17:01.454Z,9.73
2023-04-10T04:19:31.607Z,9.73
2023-04-10T04:22:00.990Z,8.07
2023-04-10T04:24:18.941Z,9.10
2023-04-10T04:26:29.984Z,10.20
2023-04-10T04:29:07.845Z,7.28
2023-04-10T04:31:32.453Z,9.40
2023-04-10T04:33:54.135Z,10.65
2023-04-10T04:36:24.672Z,9.38
2023-04-10T04:38:40.040Z,9.80
2023-04-10T04:41:02.328Z,9.23
2023-04-10T04:43:14.205Z,9.32
2023-04-10T04:45:37.308Z,8.68
2023-04-10T04:47:45.723Z,10.57
2023-04-10T04:50:02.190Z,10.50
2023-04-10T04:52:32.591Z,8.55
2023-04-10T04:54:55.772Z,8.75
2023-04-10T04:57:12.411Z,10.82
2023-04-10T04:59:35.498Z,8.65
2023-04-10T05:01:43.620Z,9.50
2023-04-10T05:03:55.484Z,9.05
2023-04-10T05:06:12.276Z,10.02
2023-04-10T05:08:41.995Z,9.77
2023-04-10T05:11:04.388Z,9.43
2023-04-10T05:13:25.728Z,10.40
2023-04-10T05:15:46.032Z,9.55
2023-04-10T05:18:13.738Z,8.95
2023-04-10T05:20:32.445Z,10.75
2023-04-10T05:22:53.968Z,9.68
2023-04-10T05:25:11.381Z,8.90
2023-04-10T05:27:35.044Z,9.50
2023-04-10T05:30:01.996Z,8.20
2023-04-10T05:32:23.991Z,8.50
2023-04-10T05:34:36.685Z,7.00
2023-04-10T05:37:12.845Z,8.10
2023-04-10T05:39:38.079Z,8.80
2023-04-10T05:42:16.287Z,8.60
2023-04-10T05:44:23.255Z,9.75
2023-04-10T05:46:41.802Z,7.90
2023-04-10T05:49:01.818Z,8.50
2023-04-10T05:51:18.176Z,10.32
2023-04-10T05:53:53.083Z,8.48
2023-04-10T05:56:02.065Z,8.32
2023-04-10T05:58:23.752Z,8.80
2023-04-10T06:00:46.779Z,8.98
2023-04-10T06:03:08.009Z,8.10
2023-04-10T06:05:21.601Z,8.18
2023-04-10T06:07:24.481Z,7.50
2023-04-10T06:09:28.597Z,8.52
2023-04-10T06:11:31.858Z,8.35
2023-04-10T06:13:36.048Z,8.23
2023-04-10T06:15:39.342Z,9.30
2023-04-10T06:17:44.219Z,8.10
2023-04-10T06:19:47.025Z,8.75
2023-04-10T06:21:49.808Z,8.68
2023-04-10T06:23:52.728Z,9.65
2023-04-10T06:25:57.235Z,10.45
2023-04-10T06:28:00.142Z,11.50
2023-04-10T06:30:03.072Z,10.70
2023-04-10T06:32:06.317Z,10.30
2023-04-10T06:34:12.950Z,9.65
2023-04-10T06:36:26.063Z,8.32
2023-04-10T06:38:37.814Z,8.40
2023-04-10T06:40:41.565Z,8.85
2023-04-10T06:42:45.647Z,9.10
2023-04-10T06:44:51.928Z,11.20
2023-04-10T06:46:54.798Z,22.95
2023-04-10T06:48:57.622Z,15.90
2023-04-10T06:51:01.502Z,19.23
2023-04-10T06:53:04.463Z,17.02
2023-04-10T06:55:08.274Z,15.60
2023-04-10T06:57:11.102Z,26.75
2023-04-10T06:59:15.717Z,22.67
2023-04-10T07:01:18.534Z,13.38
2023-04-10T07:03:21.408Z,9.43
2023-04-10T07:05:24.519Z,7.47
2023-04-10T07:07:27.301Z,7.82
2023-04-10T07:09:30.752Z,8.10
2023-04-10T07:11:33.505Z,6.85
2023-04-10T07:13:38.805Z,6.90
2023-04-10T07:15:42.926Z,6.72
2023-04-10T07:17:45.759Z,7.78
2023-04-10T07:19:48.544Z,7.13
2023-04-10T07:21:51.496Z,7.95
2023-04-10T07:23:54.277Z,8.60
2023-04-10T07:25:58.279Z,6.82
2023-04-10T07:28:01.031Z,6.65
2023-04-10T07:30:03.895Z,7.97
2023-04-10T07:32:08.238Z,7.05
2023-04-10T07:34:11.985Z,6.40
2023-04-10T07:36:14.803Z,5.90
2023-04-10T07:38:17.858Z,6.28
2023-04-10T07:40:20.907Z,6.18
2023-04-10T07:42:24.028Z,6.20
2023-04-10T07:44:28.546Z,6.30
2023-04-10T07:46:31.286Z,5.60
2023-04-10T07:48:35.376Z,7.10
2023-04-10T07:50:38.152Z,6.55
2023-04-10T07:52:40.927Z,6.00
2023-04-10T07:54:43.707Z,5.75
2023-04-10T07:56:46.536Z,6.22
2023-04-10T07:58:49.980Z,6.25
2023-04-10T08:00:52.823Z,6.28
2023-04-10T08:02:55.808Z,6.13
2023-04-10T08:05:00.102Z,5.80
2023-04-10T08:07:02.882Z,5.47
2023-04-10T08:09:05.704Z,6.05
2023-04-10T08:11:23.018Z,5.45
2023-04-10T08:13:25.801Z,5.45
2023-04-10T08:15:28.620Z,6.10
2023-04-10T08:17:31.376Z,6.35
2023-04-10T08:19:34.149Z,5.93
2023-04-10T08:21:38.242Z,5.97
2023-04-10T08:23:40.964Z,5.65
2023-04-10T08:25:43.779Z,5.25
2023-04-10T08:27:46.572Z,4.95
2023-04-10T08:29:49.361Z,5.45
2023-04-10T08:31:52.114Z,6.00
2023-04-10T08:33:55.348Z,5.22
2023-04-10T08:35:58.549Z,5.30
2023-04-10T08:38:13.406Z,5.80
2023-04-10T08:40:17.312Z,5.80
2023-04-10T08:42:20.074Z,6.45
2023-04-10T08:44:22.854Z,5.13
2023-04-10T08:46:26.070Z,5.28
2023-04-10T08:48:35.957Z,6.20
2023-04-10T08:50:43.291Z,6.10
2023-04-10T08:52:49.159Z,5.95
2023-04-10T08:54:56.626Z,5.43
2023-04-10T08:57:01.311Z,6.10
2023-04-10T08:59:04.742Z,6.30
2023-04-10T09:01:08.313Z,5.53
2023-04-10T09:03:14.309Z,5.33
2023-04-10T09:05:17.651Z,4.73
2023-04-10T09:07:20.441Z,5.00
2023-04-10T09:09:23.134Z,5.30
2023-04-10T09:12:03.853Z,5.00
2023-04-10T09:14:21.493Z,4.70
2023-04-10T09:16:30.104Z,5.73
2023-04-10T09:18:51.628Z,5.53
2023-04-10T09:20:54.412Z,5.23
2023-04-10T09:22:57.606Z,5.77
2023-04-10T09:25:01.317Z,5.53
2023-04-10T09:27:05.975Z,8.83
2023-04-10T09:29:10.948Z,5.30
2023-04-10T09:31:29.914Z,4.80
2023-04-10T09:33:32.756Z,5.80
2023-04-10T09:35:39.492Z,4.80
2023-04-10T09:37:43.371Z,5.27
2023-04-10T09:39:46.119Z,4.47
2023-04-10T09:41:50.882Z,4.50
2023-04-10T09:44:06.807Z,5.23
2023-04-10T09:46:09.612Z,4.40
2023-04-10T09:48:12.389Z,4.37
2023-04-10T09:50:15.211Z,3.97
2023-04-10T09:52:22.498Z,3.87
2023-04-10T09:54:38.293Z,3.70
2023-04-10T09:56:41.026Z,3.70
2023-04-10T09:58:43.917Z,3.93
2023-04-10T10:00:50.074Z,4.00
2023-04-10T10:02:54.479Z,4.57
2023-04-10T10:05:00.637Z,3.70
2023-04-10T10:07:03.639Z,3.40
2023-04-10T10:09:06.831Z,3.47
2023-04-10T10:11:12.152Z,3.60
2023-04-10T10:13:18.945Z,3.40
2023-04-10T10:15:29.694Z,4.77
2023-04-10T10:17:40.471Z,3.50
2023-04-10T10:19:51.206Z,3.43
2023-04-10T10:21:55.870Z,3.23
2023-04-10T10:24:01.615Z,3.00
2023-04-10T10:26:06.714Z,3.10
2023-04-10T10:28:14.155Z,3.17
2023-04-10T10:30:29.374Z,3.37
2023-04-10T10:32:35.676Z,3.00
2023-04-10T10:34:38.638Z,2.90
2023-04-10T10:36:41.587Z,3.20
2023-04-10T10:38:59.006Z,3.00
2023-04-10T10:41:07.709Z,2.97
2023-04-10T10:43:16.146Z,3.57
2023-04-10T10:45:23.251Z,3.00
2023-04-10T10:47:28.900Z,3.03
2023-04-10T10:49:54.626Z,2.80
2023-04-10T10:51:57.317Z,2.83
2023-04-10T10:54:00.040Z,2.90
2023-04-10T10:56:34.377Z,2.70
2023-04-10T10:58:50.882Z,3.00
2023-04-10T11:01:10.788Z,2.53
2023-04-10T11:03:29.260Z,3.57
2023-04-10T11:05:54.179Z,2.50
2023-04-10T11:08:09.906Z,2.50
2023-04-10T11:10:12.687Z,3.03
2023-04-10T11:12:16.548Z,2.40
2023-04-10T11:14:20.319Z,2.67
2023-04-10T11:16:24.533Z,2.80
2023-04-10T11:19:13.109Z,2.60
2023-04-10T11:21:20.006Z,5.10
2023-04-10T11:23:22.839Z,2.77
2023-04-10T11:25:47.529Z,2.23
2023-04-10T11:27:51.618Z,2.30
2023-04-10T11:29:54.871Z,2.20
2023-04-10T11:31:59.076Z,2.00
2023-04-10T11:34:03.904Z,1.90
2023-04-10T11:36:07.746Z,2.30
2023-04-10T11:38:14.381Z,2.03
2023-04-10T11:40:17.377Z,2.00
2023-04-10T11:42:21.969Z,1.73
2023-04-10T11:44:35.837Z,2.10
2023-04-10T11:46:39.565Z,1.70
2023-04-10T11:48:42.302Z,2.10
2023-04-10T11:50:45.488Z,2.07
2023-04-10T11:52:48.765Z,1.50
2023-04-10T11:54:52.822Z,1.77
2023-04-10T11:57:02.116Z,1.87
2023-04-10T11:59:07.637Z,1.90
2023-04-10T12:01:14.294Z,2.43
2023-04-10T12:03:17.091Z,2.10
2023-04-10T12:05:20.083Z,1.80
2023-04-10T12:07:25.473Z,4.47
2023-04-10T12:09:28.245Z,5.63
2023-04-10T12:11:32.368Z,1.47
2023-04-10T12:13:35.090Z,1.60
2023-04-10T12:15:38.715Z,1.33
2023-04-10T12:17:41.515Z,0.73
2023-04-10T12:19:44.280Z,0.70
2023-04-10T12:21:47.526Z,1.00
2023-04-10T12:23:50.278Z,0.90
2023-04-10T12:25:53.389Z,0.63
2023-04-10T12:27:57.506Z,0.73
2023-04-10T12:30:00.282Z,0.70
2023-04-10T12:32:09.309Z,0.80
2023-04-10T12:34:19.658Z,5.90
2023-04-10T12:36:22.990Z,1.27
2023-04-10T12:38:39.896Z,1.30
2023-04-10T12:41:00.479Z,0.87
2023-04-10T12:43:04.645Z,0.63
2023-04-10T12:45:09.873Z,0.87
2023-04-10T12:47:12.607Z,1.53
2023-04-10T12:49:17.194Z,0.90
2023-04-10T12:51:20.048Z,0.70
2023-04-10T12:53:22.906Z,0.50
2023-04-10T12:55:25.845Z,1.00
2023-04-10T12:57:28.679Z,1.03
2023-04-10T12:59:32.773Z,0.90
2023-04-10T13:01:35.601Z,0.90
2023-04-10T13:03:39.185Z,0.70
2023-04-10T13:05:42.183Z,3.17
2023-04-10T13:07:44.936Z,1.17
2023-04-10T13:09:47.667Z,0.77
2023-04-10T13:11:52.409Z,1.47
2023-04-10T13:13:55.345Z,0.73
2023-04-10T13:15:59.690Z,0.80
2023-04-10T13:18:05.243Z,1.00
2023-04-10T13:20:10.745Z,1.23
2023-04-10T13:22:13.483Z,0.93
2023-04-10T13:24:16.880Z,0.80
2023-04-10T13:26:19.711Z,0.70
2023-04-10T13:28:22.548Z,0.77
2023-04-10T13:30:25.292Z,1.20
2023-04-10T13:32:29.374Z,0.90
2023-04-10T13:34:32.215Z,1.00
2023-04-10T13:36:35.038Z,0.83
2023-04-10T13:38:38.524Z,0.90
2023-04-10T13:40:41.297Z,0.80
2023-04-10T13:42:44.044Z,0.77
2023-04-10T13:44:46.814Z,1.07
2023-04-10T13:46:49.609Z,2.77
2023-04-10T13:48:53.701Z,0.70
2023-04-10T13:50:56.445Z,0.80
2023-04-10T13:52:59.225Z,0.90
2023-04-10T13:55:02.150Z,1.17
2023-04-10T13:57:05.114Z,0.70
2023-04-10T13:59:07.902Z,1.00
2023-04-10T14:01:12.369Z,0.80
2023-04-10T14:03:15.316Z,1.07
2023-04-10T14:05:19.685Z,0.63
2023-04-10T14:07:22.492Z,0.93
2023-04-10T14:09:25.467Z,1.20
2023-04-10T14:11:28.226Z,1.03
2023-04-10T14:13:31.033Z,1.00
2023-04-10T14:15:33.896Z,1.50
2023-04-10T14:17:36.740Z,1.00
2023-04-10T14:19:39.856Z,1.20
2023-04-10T14:21:44.584Z,1.07
2023-04-10T14:23:47.402Z,1.30
2023-04-10T14:25:51.282Z,0.80
2023-04-10T14:27:54.066Z,1.10
2023-04-10T14:29:56.860Z,1.00
2023-04-10T14:31:59.823Z,0.90
2023-04-10T14:34:02.609Z,1.27
2023-04-10T14:36:06.118Z,1.23
2023-04-10T14:38:10.790Z,0.93
2023-04-10T14:40:13.560Z,1.00
2023-04-10T14:42:16.372Z,1.20
2023-04-10T14:44:19.290Z,1.07
2023-04-10T14:46:22.022Z,1.00
2023-04-10T14:48:24.937Z,0.77
2023-04-10T14:50:27.775Z,1.07
2023-04-10T14:52:30.609Z,0.80
2023-04-10T14:54:34.746Z,1.20
2023-04-10T14:56:37.538Z,1.40
2023-04-10T14:58:40.388Z,1.00
2023-04-10T15:00:43.687Z,0.97
2023-04-10T15:02:46.723Z,1.70
2023-04-10T15:04:49.618Z,1.40
2023-04-10T15:06:52.344Z,1.27
2023-04-10T15:08:55.887Z,1.27
2023-04-10T15:11:00.324Z,1.10
2023-04-10T15:13:03.278Z,1.40
2023-04-10T15:15:07.116Z,1.10
2023-04-10T15:17:09.905Z,1.07
2023-04-10T15:19:12.834Z,0.97
2023-04-10T15:21:15.657Z,2.20
2023-04-10T15:23:18.436Z,1.33
2023-04-10T15:25:21.177Z,4.07
2023-04-10T15:27:25.360Z,1.00
2023-04-10T15:29:28.799Z,1.80
2023-04-10T15:31:31.586Z,1.20
2023-04-10T15:33:36.126Z,11.63
2023-04-10T15:35:38.883Z,1.30
2023-04-10T15:37:41.654Z,3.00
2023-04-10T15:39:44.333Z,1.17
2023-04-10T15:41:48.382Z,3.93
2023-04-10T15:43:52.819Z,2.63
2023-04-10T15:45:56.109Z,1.77
2023-04-10T15:48:01.093Z,4.87
2023-04-10T15:50:04.581Z,12.40
2023-04-10T15:52:07.844Z,5.10
2023-04-10T15:54:11.054Z,7.90
2023-04-10T15:56:15.981Z,15.23
2023-04-10T15:58:18.929Z,9.20
2023-04-10T16:00:26.255Z,2.37
2023-04-10T16:02:29.184Z,7.10
2023-04-10T16:04:32.489Z,15.57
2023-04-10T16:06:35.412Z,15.03
2023-04-10T16:08:38.154Z,7.07
2023-04-10T16:10:40.934Z,4.10
2023-04-10T16:12:43.561Z,1.93
2023-04-10T16:14:46.273Z,3.40
2023-04-10T16:16:50.949Z,2.57
2023-04-10T16:18:54.175Z,1.90
2023-04-10T16:20:56.925Z,1.77
2023-04-10T16:22:59.895Z,1.67
2023-04-10T16:27:10.298Z,1.60
2023-04-10T16:29:12.954Z,1.93
2023-04-10T16:31:15.670Z,1.60
2023-04-10T16:33:19.764Z,1.83
2023-04-10T16:35:22.764Z,2.10
2023-04-10T16:37:25.489Z,1.50
2023-04-10T16:39:28.281Z,1.50
2023-04-10T16:41:31.080Z,1.53
2023-04-10T16:43:33.783Z,1.50
2023-04-10T16:45:36.459Z,2.03
2023-04-10T16:47:40.402Z,2.30
2023-04-10T16:49:45.700Z,2.60
2023-04-10T16:51:48.421Z,2.00
2023-04-10T16:53:51.147Z,3.63
2023-04-10T16:55:58.512Z,2.13
2023-04-10T16:58:01.225Z,2.93
2023-04-10T17:00:04.276Z,3.83
2023-04-10T17:02:07.101Z,3.70
2023-04-10T17:04:10.512Z,3.07
2023-04-10T17:06:15.892Z,2.60
2023-04-10T17:08:18.687Z,2.93
2023-04-10T17:10:21.375Z,2.00
2023-04-10T17:12:24.111Z,3.13
2023-04-10T17:14:26.837Z,2.60
2023-04-10T17:16:29.565Z,1.70
2023-04-10T17:18:32.367Z,2.53
2023-04-10T17:20:36.820Z,2.00
2023-04-10T17:22:41.083Z,2.33
2023-04-10T17:24:44.562Z,2.10
2023-04-10T17:26:47.413Z,2.87
2023-04-10T17:28:50.902Z,4.23
2023-04-10T17:30:53.697Z,3.47
2023-04-10T17:32:56.445Z,3.60
2023-04-10T17:34:59.344Z,2.87
2023-04-10T17:37:02.455Z,2.37
2023-04-10T17:39:06.642Z,3.30
2023-04-10T17:41:10.288Z,2.20
2023-04-10T17:43:13.016Z,2.50
2023-04-10T17:45:15.933Z,2.10
2023-04-10T17:47:18.880Z,2.50
2023-04-10T17:49:22.293Z,1.90
2023-04-10T17:51:25.112Z,2.40
2023-04-10T17:53:27.882Z,3.00
2023-04-10T17:55:32.053Z,3.67
2023-04-10T17:57:34.789Z,2.27
2023-04-10T17:59:37.579Z,2.70
2023-04-10T18:01:40.478Z,2.37
2023-04-10T18:03:43.412Z,2.40
2023-04-10T18:05:46.208Z,2.20
2023-04-10T18:07:49.033Z,2.20
2023-04-10T18:09:51.814Z,2.10
2023-04-10T18:11:56.048Z,1.83
2023-04-10T18:13:58.776Z,2.07
2023-04-10T18:16:02.164Z,2.73
2023-04-10T18:18:04.952Z,1.90
2023-04-10T18:20:08.622Z,1.83
2023-04-10T18:22:11.825Z,2.07
2023-04-10T18:24:15.040Z,1.50
2023-04-10T18:26:20.728Z,1.67
2023-04-10T18:28:24.840Z,2.27
2023-04-10T18:30:27.582Z,1.60
2023-04-10T18:32:30.381Z,1.70
2023-04-10T18:34:33.140Z,4.30
2023-04-10T18:36:35.988Z,5.17
2023-04-10T18:38:41.105Z,6.23
2023-04-10T18:40:43.879Z,4.43
2023-04-10T18:42:46.617Z,3.63
2023-04-10T18:44:50.802Z,3.30
2023-04-10T18:47:01.430Z,3.10
2023-04-10T18:49:06.427Z,2.53
2023-04-10T18:51:10.022Z,2.43
2023-04-10T18:53:12.793Z,3.27
2023-04-10T18:55:15.936Z,2.90
2023-04-10T18:57:18.647Z,3.57
2023-04-10T18:59:22.452Z,2.20
2023-04-10T19:01:26.531Z,2.43
2023-04-10T19:03:29.573Z,3.43
2023-04-10T19:05:33.527Z,3.63
2023-04-10T19:07:36.317Z,2.63
2023-04-10T19:09:38.983Z,2.60
2023-04-10T19:11:42.681Z,2.67
2023-04-10T19:13:45.600Z,2.20
2023-04-10T19:15:49.899Z,3.07
2023-04-10T19:17:54.892Z,2.50
2023-04-10T19:19:58.751Z,1.93
2023-04-10T19:22:01.894Z,2.57
2023-04-10T19:24:04.756Z,2.50
2023-04-10T19:26:08.634Z,2.40
2023-04-10T19:28:11.383Z,2.63
2023-04-10T19:30:15.453Z,5.27
2023-04-10T19:32:18.454Z,2.50
2023-04-10T19:34:22.572Z,3.40
2023-04-10T19:36:27.116Z,3.10
2023-04-10T19:38:30.597Z,2.80
2023-04-10T19:40:33.319Z,2.70
2023-04-10T19:42:36.549Z,2.70
2023-04-10T19:44:39.414Z,2.73
2023-04-10T19:46:42.513Z,2.33
2023-04-10T19:48:45.652Z,2.80
2023-04-10T19:50:49.791Z,4.13
2023-04-10T19:52:52.843Z,5.40
2023-04-10T19:54:55.661Z,5.13
2023-04-10T19:56:58.651Z,4.47
2023-04-10T19:59:01.920Z,5.43
2023-04-10T20:01:05.288Z,5.40
2023-04-10T20:03:08.320Z,5.50
2023-04-10T20:05:11.438Z,4.00
2023-04-10T20:07:15.673Z,3.63
2023-04-10T20:09:18.538Z,5.07
2023-04-10T20:11:21.279Z,6.63
2023-04-10T20:13:24.024Z,4.93
2023-04-10T20:15:26.935Z,6.00
2023-04-10T20:17:30.166Z,4.30
2023-04-10T20:19:32.937Z,3.17
2023-04-10T20:21:35.787Z,2.40
2023-04-10T20:23:39.901Z,3.17
2023-04-10T20:25:42.706Z,2.50
2023-04-10T20:27:45.496Z,3.90
2023-04-10T20:29:48.334Z,4.17
2023-04-10T20:31:51.174Z,2.90
2023-04-10T20:33:54.751Z,2.90
2023-04-10T20:35:57.649Z,3.50
2023-04-10T20:38:00.489Z,4.00
2023-04-10T20:40:05.075Z,4.17
2023-04-10T20:42:07.816Z,3.67
2023-04-10T20:44:10.572Z,3.70
2023-04-10T20:46:13.643Z,2.73
2023-04-10T20:48:16.342Z,1.83
2023-04-10T20:50:19.578Z,2.83
2023-04-10T20:52:22.470Z,1.80
2023-04-10T20:54:26.800Z,2.83
2023-04-10T20:56:40.600Z,2.17
2023-04-10T20:58:46.032Z,2.17
2023-04-10T21:00:51.527Z,1.80
2023-04-10T21:02:54.450Z,1.80
2023-04-10T21:04:57.385Z,2.30
2023-04-10T21:07:00.167Z,3.87
2023-04-10T21:09:02.949Z,6.37
2023-04-10T21:11:05.818Z,5.67
2023-04-10T21:13:09.962Z,4.60
2023-04-10T21:15:12.773Z,6.23
2023-04-10T21:17:15.930Z,7.67
2023-04-10T21:19:18.697Z,7.90
2023-04-10T21:21:21.489Z,5.17
2023-04-10T21:23:24.259Z,6.30
2023-04-10T21:25:27.041Z,7.70
2023-04-10T21:27:29.811Z,8.77
2023-04-10T21:29:33.956Z,4.67
2023-04-10T21:31:36.802Z,5.33
2023-04-10T21:33:39.575Z,5.27
2023-04-10T21:35:43.474Z,3.27
2023-04-10T21:37:46.265Z,3.23
2023-04-10T21:39:49.048Z,2.87
2023-04-10T21:41:51.887Z,4.17
2023-04-10T21:43:56.441Z,4.67
2023-04-10T21:46:02.697Z,2.80
2023-04-10T21:48:05.861Z,3.70
2023-04-10T21:50:09.573Z,3.93
2023-04-10T21:52:12.529Z,4.70
2023-04-10T21:54:15.351Z,4.97
2023-04-10T21:56:18.078Z,3.67
2023-04-10T21:58:20.822Z,4.50
2023-04-10T22:00:23.649Z,5.50
2023-04-10T22:02:27.930Z,4.23
2023-04-10T22:04:33.093Z,3.10
2023-04-10T22:06:36.003Z,4.03
2023-04-10T22:08:39.116Z,2.97
2023-04-10T22:10:44.853Z,2.20
2023-04-10T22:12:48.813Z,3.00
2023-04-10T22:14:52.041Z,3.37
2023-04-10T22:16:56.050Z,2.67
2023-04-10T22:19:00.709Z,3.10
2023-04-10T22:21:03.395Z,2.10
2023-04-10T22:23:06.989Z,2.60
2023-04-10T22:25:10.045Z,1.60
2023-04-10T22:27:12.725Z,2.00
2023-04-10T22:29:15.596Z,3.77
2023-04-10T22:31:19.916Z,4.77
2023-04-10T22:33:22.755Z,4.20
2023-04-10T22:35:26.861Z,5.30
2023-04-10T22:37:29.623Z,3.63
2023-04-10T22:39:32.310Z,3.50
2023-04-10T22:41:35.062Z,2.70
2023-04-10T22:43:37.783Z,3.90
2023-04-10T22:45:41.672Z,3.53
2023-04-10T22:47:44.452Z,3.40
2023-04-10T22:49:47.180Z,5.30
2023-04-10T22:51:51.249Z,4.57
2023-04-10T22:53:54.020Z,3.43
2023-04-10T22:55:56.734Z,4.43
2023-04-10T22:57:59.431Z,2.13
2023-04-10T23:00:02.121Z,3.63
2023-04-10T23:02:05.061Z,2.90
2023-04-10T23:04:07.988Z,3.17
2023-04-10T23:06:10.943Z,3.07
2023-04-10T23:08:15.254Z,3.70
2023-04-10T23:10:18.040Z,6.33
2023-04-10T23:12:20.737Z,4.50
2023-04-10T23:14:23.605Z,5.40
2023-04-10T23:16:26.381Z,6.27
2023-04-10T23:18:29.181Z,5.80
2023-04-10T23:20:31.866Z,8.37
2023-04-10T23:22:34.578Z,19.00
2023-04-10T23:24:38.890Z,9.53
2023-04-10T23:26:41.576Z,8.13
2023-04-10T23:28:44.256Z,4.60
2023-04-10T23:30:47.029Z,4.30
2023-04-10T23:32:49.732Z,4.60
2023-04-10T23:34:52.490Z,3.53
2023-04-10T23:36:55.745Z,2.63
2023-04-10T23:38:58.477Z,2.17
2023-04-10T23:41:03.590Z,5.30
2023-04-10T23:43:06.393Z,2.73
2023-04-10T23:45:10.324Z,2.80
2023-04-10T23:47:13.353Z,3.67
2023-04-10T23:49:16.139Z,2.20
2023-04-10T23:51:18.867Z,2.47
2023-04-10T23:53:21.614Z,4.03
2023-04-10T23:55:24.417Z,2.40
2023-04-10T23:57:28.881Z,3.03
2023-04-10T23:59:31.627Z,1.80
